Terminal Aerodrome Forecast
Issued by NWS

Home | Current Version | Previous Version | Text Only | Print | Product List | Glossary On
Versions: 1 2 3 4 5 6 7 8 9 10 11 12 13 14 15 16 17 18 19 20 21 22 23 24 25
000
FTPA31 PHFO 300800 AAA
TAFPPG
TAF AMD
NSTU 300802Z 3008/3106 14015KT P6SM SCT025 OVC035
      TEMPO 3008/3012 -SHRA BKN020
     FM301300 12018KT P6SM SCT025 OVC050=

USA.gov is the U.S. government's official web portal to all federal, state and local government web resources and services.